createdAt,value
2022-11-18T00:00:20.492Z,1.85
2022-11-18T00:02:47.657Z,1.70
2022-11-18T00:05:21.679Z,2.00
2022-11-18T00:07:48.844Z,2.13
2022-11-18T00:10:16.063Z,2.08
2022-11-18T00:13:08.615Z,1.92
2022-11-18T00:15:35.906Z,1.88
2022-11-18T00:18:03.000Z,1.90
2022-11-18T00:20:36.378Z,1.67
2022-11-18T00:23:10.470Z,1.95
2022-11-18T00:25:37.648Z,1.60
2022-11-18T00:28:05.085Z,1.55
2022-11-18T00:30:38.415Z,1.52
2022-11-18T00:33:05.652Z,1.75
2022-11-18T00:35:39.805Z,1.73
2022-11-18T00:38:13.369Z,1.65
2022-11-18T00:40:47.551Z,1.40
2022-11-18T00:43:14.878Z,1.15
2022-11-18T00:45:43.805Z,1.58
2022-11-18T00:48:17.535Z,1.73
2022-11-18T00:50:44.699Z,1.70
2022-11-18T00:53:11.792Z,2.20
2022-11-18T00:55:45.405Z,1.75
2022-11-18T00:58:14.420Z,1.63
2022-11-18T01:00:57.580Z,1.52
2022-11-18T01:03:25.675Z,1.42
2022-11-18T01:05:52.850Z,1.58
2022-11-18T01:08:26.497Z,1.50
2022-11-18T01:10:53.723Z,1.83
2022-11-18T01:13:29.415Z,1.90
2022-11-18T01:15:57.697Z,1.90
2022-11-18T01:18:32.530Z,1.50
2022-11-18T01:21:03.528Z,1.65
2022-11-18T01:23:30.846Z,1.90
2022-11-18T01:26:04.439Z,1.65
2022-11-18T01:28:31.618Z,2.03
2022-11-18T01:31:12.407Z,2.45
2022-11-18T01:33:39.754Z,1.90
2022-11-18T01:36:22.594Z,2.25
2022-11-18T01:38:56.472Z,1.90
2022-11-18T01:41:37.962Z,2.25
2022-11-18T01:44:06.403Z,2.60
2022-11-18T01:46:34.586Z,2.15
2022-11-18T01:49:13.538Z,2.40
2022-11-18T01:51:46.950Z,2.33
2022-11-18T01:54:23.615Z,2.47
2022-11-18T01:56:53.311Z,2.42
2022-11-18T01:59:29.505Z,2.60
2022-11-18T02:01:59.789Z,2.38
2022-11-18T02:04:34.535Z,2.20
2022-11-18T02:07:02.359Z,2.45
2022-11-18T02:09:29.791Z,2.42
2022-11-18T02:12:04.488Z,2.28
2022-11-18T02:14:34.359Z,2.47
2022-11-18T02:17:25.038Z,2.15
2022-11-18T02:19:58.124Z,2.10
2022-11-18T02:22:43.424Z,2.17
2022-11-18T02:25:29.419Z,2.10
2022-11-18T02:28:21.446Z,2.30
2022-11-18T02:30:59.097Z,2.63
2022-11-18T02:33:51.437Z,2.33
2022-11-18T02:36:20.065Z,2.47
2022-11-18T02:39:03.418Z,2.53
2022-11-18T02:41:31.797Z,2.30
2022-11-18T02:44:18.456Z,2.28
2022-11-18T02:46:47.948Z,2.28
2022-11-18T02:49:25.409Z,2.13
2022-11-18T02:51:53.295Z,2.20
2022-11-18T02:54:27.444Z,2.15
2022-11-18T02:56:55.129Z,2.42
2022-11-18T02:59:29.671Z,2.58
2022-11-18T03:01:56.910Z,2.28
2022-11-18T03:04:24.751Z,2.05
2022-11-18T03:07:17.545Z,1.73
2022-11-18T03:09:45.869Z,1.90
2022-11-18T03:12:25.471Z,3.25
2022-11-18T03:15:01.903Z,2.33
2022-11-18T03:17:52.576Z,2.30
2022-11-18T03:20:29.248Z,1.75
2022-11-18T03:23:26.461Z,2.05
2022-11-18T03:26:02.407Z,1.95
2022-11-18T03:29:02.441Z,1.83
2022-11-18T03:31:31.866Z,1.77
2022-11-18T03:34:07.420Z,1.42
2022-11-18T03:36:35.831Z,1.85
2022-11-18T03:39:17.812Z,1.63
2022-11-18T03:41:47.108Z,1.63
2022-11-18T03:44:24.434Z,1.70
2022-11-18T03:46:55.230Z,1.58
2022-11-18T03:49:42.441Z,1.55
2022-11-18T03:52:15.377Z,1.80
2022-11-18T03:54:51.417Z,1.80
2022-11-18T03:57:23.804Z,1.70
2022-11-18T04:00:07.429Z,1.70
2022-11-18T04:02:35.013Z,2.00
2022-11-18T04:07:38.901Z,1.58
2022-11-18T04:10:22.526Z,2.10
2022-11-18T04:12:52.213Z,1.83
2022-11-18T04:15:26.452Z,1.80
2022-11-18T04:17:53.681Z,1.90
2022-11-18T04:20:28.502Z,1.90
2022-11-18T04:22:55.709Z,2.00
2022-11-18T04:25:24.427Z,1.80
2022-11-18T04:27:58.487Z,1.90
2022-11-18T04:30:25.714Z,1.92
2022-11-18T04:32:59.509Z,2.05
2022-11-18T04:35:27.210Z,1.73
2022-11-18T04:38:08.623Z,1.92
2022-11-18T04:40:42.383Z,1.90
2022-11-18T04:43:16.646Z,2.20
2022-11-18T04:45:50.373Z,1.80
2022-11-18T04:48:25.788Z,1.90
2022-11-18T04:50:59.368Z,2.33
2022-11-18T04:53:33.644Z,2.08
2022-11-18T04:56:07.281Z,2.22
2022-11-18T04:58:40.603Z,1.65
2022-11-18T05:01:07.860Z,1.90
2022-11-18T05:03:35.004Z,2.33
2022-11-18T05:06:09.429Z,1.85
2022-11-18T05:08:36.591Z,1.92
2022-11-18T05:11:32.691Z,2.08
2022-11-18T05:13:59.846Z,2.30
2022-11-18T05:16:26.976Z,1.83
2022-11-18T05:19:00.526Z,2.45
2022-11-18T05:21:27.772Z,2.10
2022-11-18T05:24:01.456Z,2.00
2022-11-18T05:26:28.641Z,2.10
2022-11-18T05:28:56.225Z,2.00
2022-11-18T05:33:56.971Z,2.20
2022-11-18T05:39:07.498Z,2.40
2022-11-18T05:42:00.633Z,2.00
2022-11-18T05:44:27.875Z,2.30
2022-11-18T05:46:55.260Z,2.50
2022-11-18T05:49:29.438Z,2.83
2022-11-18T05:51:56.598Z,2.50
2022-11-18T05:54:30.492Z,2.38
2022-11-18T05:56:57.648Z,2.80
2022-11-18T05:59:24.793Z,2.53
2022-11-18T06:01:58.729Z,2.78
2022-11-18T06:04:32.128Z,2.45
2022-11-18T06:07:20.691Z,2.25
2022-11-18T06:09:50.333Z,3.35
2022-11-18T06:12:19.275Z,2.55
2022-11-18T06:14:59.536Z,2.72
2022-11-18T06:17:35.388Z,3.13
2022-11-18T06:20:10.653Z,2.88
2022-11-18T06:22:46.661Z,3.03
2022-11-18T06:25:20.503Z,2.95
2022-11-18T06:27:54.540Z,3.13
2022-11-18T06:30:21.994Z,3.03
2022-11-18T06:32:49.135Z,3.13
2022-11-18T06:35:23.462Z,3.50
2022-11-18T06:38:10.387Z,3.42
2022-11-18T06:40:44.621Z,3.63
2022-11-18T06:43:31.270Z,3.60
2022-11-18T06:46:26.651Z,3.78
2022-11-18T06:48:53.845Z,3.45
2022-11-18T06:51:21.066Z,3.65
2022-11-18T06:53:54.468Z,2.90
2022-11-18T06:56:22.398Z,3.50
2022-11-18T06:59:00.637Z,3.10
2022-11-18T07:03:55.105Z,3.90
2022-11-18T07:06:30.625Z,3.70
2022-11-18T07:08:57.890Z,3.70
2022-11-18T07:11:26.359Z,3.63
2022-11-18T07:14:00.479Z,3.88
2022-11-18T07:16:27.835Z,3.28
2022-11-18T07:19:01.741Z,3.88
2022-11-18T07:21:29.961Z,3.47
2022-11-18T07:23:57.434Z,3.40
2022-11-18T07:26:31.494Z,4.13
2022-11-18T07:28:58.702Z,3.80
2022-11-18T07:31:32.521Z,3.53
2022-11-18T07:33:59.698Z,3.50
2022-11-18T07:36:34.037Z,3.53
2022-11-18T07:39:09.546Z,4.07
2022-11-18T07:41:43.318Z,4.15
2022-11-18T07:44:18.650Z,4.15
2022-11-18T07:46:45.883Z,4.10
2022-11-18T07:49:13.170Z,3.83
2022-11-18T07:51:47.489Z,3.63
2022-11-18T07:54:17.178Z,3.47
2022-11-18T07:56:51.577Z,3.50
2022-11-18T07:59:18.968Z,3.30
2022-11-18T08:04:20.091Z,3.00
2022-11-18T08:06:47.270Z,3.25
2022-11-18T08:09:20.759Z,3.25
2022-11-18T08:11:47.978Z,2.40
2022-11-18T08:14:15.056Z,3.22
2022-11-18T08:16:48.499Z,4.07
2022-11-18T08:19:15.829Z,2.88
2022-11-18T08:24:16.906Z,3.47
2022-11-18T08:26:44.006Z,3.05
2022-11-18T08:29:23.473Z,3.47
2022-11-18T08:31:52.194Z,3.22
2022-11-18T08:34:25.565Z,3.60
2022-11-18T08:36:52.715Z,3.08
2022-11-18T08:39:33.483Z,3.67
2022-11-18T08:42:00.603Z,3.60
2022-11-18T08:44:34.652Z,3.45
2022-11-18T08:47:01.842Z,3.75
2022-11-18T08:49:32.413Z,3.20
2022-11-18T08:52:06.506Z,4.03
2022-11-18T08:54:33.738Z,3.88
2022-11-18T08:57:07.640Z,3.33
2022-11-18T08:59:34.978Z,3.22
2022-11-18T09:02:02.174Z,3.00
2022-11-18T09:04:35.530Z,3.47
2022-11-18T09:07:02.928Z,2.78
2022-11-18T09:09:36.537Z,3.20
2022-11-18T09:12:03.776Z,3.05
2022-11-18T09:17:24.978Z,3.08
2022-11-18T09:19:58.620Z,2.60
2022-11-18T09:22:25.873Z,2.80
2022-11-18T09:24:52.990Z,2.08
2022-11-18T09:27:26.516Z,2.50
2022-11-18T09:29:53.696Z,2.30
2022-11-18T09:32:27.555Z,2.40
2022-11-18T09:34:54.814Z,2.28
2022-11-18T09:37:35.651Z,1.90
2022-11-18T09:40:09.475Z,2.08
2022-11-18T09:42:47.589Z,2.22
2022-11-18T09:45:27.430Z,2.65
2022-11-18T09:47:57.771Z,2.33
2022-11-18T09:50:49.249Z,2.08
2022-11-18T09:53:25.698Z,2.00
2022-11-18T09:55:59.474Z,2.10
2022-11-18T09:58:33.791Z,1.85
2022-11-18T10:01:07.636Z,1.58
2022-11-18T10:03:36.143Z,2.00
2022-11-18T10:06:03.718Z,1.88
2022-11-18T10:11:26.444Z,1.70
2022-11-18T10:14:08.563Z,1.90
2022-11-18T10:16:53.884Z,1.70
2022-11-18T10:19:44.950Z,2.17
2022-11-18T10:22:37.462Z,1.92
2022-11-18T10:25:04.902Z,1.17
2022-11-18T10:27:44.456Z,2.00
2022-11-18T10:30:13.389Z,1.88
2022-11-18T10:33:04.487Z,1.70
2022-11-18T10:35:36.938Z,1.50
2022-11-18T10:38:29.438Z,1.30
2022-11-18T10:41:02.107Z,1.60
2022-11-18T10:43:56.440Z,2.10
2022-11-18T10:46:34.530Z,1.60
2022-11-18T10:49:17.432Z,2.10
2022-11-18T10:51:46.735Z,2.22
2022-11-18T10:54:27.472Z,2.10
2022-11-18T10:57:01.866Z,1.55
2022-11-18T10:59:41.474Z,2.08
2022-11-18T11:02:21.888Z,1.98
2022-11-18T11:04:57.447Z,2.05
2022-11-18T11:07:37.764Z,1.92
2022-11-18T11:10:11.445Z,1.85
2022-11-18T11:12:47.104Z,1.70
2022-11-18T11:15:25.526Z,1.95
2022-11-18T11:18:14.725Z,2.17
2022-11-18T11:20:48.452Z,1.95
2022-11-18T11:23:22.060Z,1.50
2022-11-18T11:28:51.192Z,2.08
2022-11-18T11:31:29.488Z,2.50
2022-11-18T11:36:37.568Z,2.25
2022-11-18T11:39:21.013Z,2.05
2022-11-18T11:41:59.478Z,2.22
2022-11-18T11:44:32.654Z,1.98
2022-11-18T11:47:25.630Z,2.10
2022-11-18T11:50:03.760Z,2.22
2022-11-18T11:52:46.611Z,2.22
2022-11-18T11:55:19.813Z,1.75
2022-11-18T11:58:02.502Z,1.90
2022-11-18T12:00:39.619Z,2.08
2022-11-18T12:03:14.990Z,1.73
2022-11-18T12:05:49.667Z,1.60
2022-11-18T12:08:16.754Z,1.65
2022-11-18T12:10:50.565Z,1.67
2022-11-18T12:13:36.609Z,1.40
2022-11-18T12:16:29.636Z,1.60
2022-11-18T12:18:56.800Z,1.38
2022-11-18T12:21:52.627Z,1.27
2022-11-18T12:24:27.485Z,1.15
2022-11-18T12:27:01.722Z,1.00
2022-11-18T12:29:38.189Z,0.93
2022-11-18T12:32:21.585Z,1.25
2022-11-18T12:35:02.471Z,1.08
2022-11-18T12:37:29.710Z,1.45
2022-11-18T12:40:10.508Z,1.45
2022-11-18T12:42:59.006Z,1.50
2022-11-18T12:45:44.606Z,1.50
2022-11-18T12:48:30.365Z,1.58
2022-11-18T12:51:04.475Z,1.60
2022-11-18T12:53:39.116Z,1.50
2022-11-18T12:56:25.673Z,1.58
2022-11-18T12:58:54.196Z,1.50
2022-11-18T13:01:22.866Z,1.70
2022-11-18T13:03:56.580Z,1.63
2022-11-18T13:06:30.852Z,1.55
2022-11-18T13:09:05.586Z,1.40
2022-11-18T13:11:45.867Z,1.60
2022-11-18T13:14:43.536Z,1.65
2022-11-18T13:17:54.554Z,1.80
2022-11-18T13:20:35.569Z,1.33
2022-11-18T13:23:39.592Z,1.50
2022-11-18T13:26:08.133Z,1.38
2022-11-18T13:28:45.495Z,2.15
2022-11-18T13:31:22.976Z,1.50
2022-11-18T13:33:57.502Z,1.92
2022-11-18T13:36:25.942Z,1.65
2022-11-18T13:39:10.513Z,1.90
2022-11-18T13:41:44.552Z,1.80
2022-11-18T13:44:18.528Z,2.13
2022-11-18T13:46:48.040Z,1.73
2022-11-18T13:49:16.944Z,1.92
2022-11-18T13:51:51.663Z,1.92
2022-11-18T13:54:25.112Z,1.80
2022-11-18T13:56:59.602Z,1.80
2022-11-18T13:59:26.905Z,2.40
2022-11-18T14:02:06.754Z,1.88
2022-11-18T14:04:34.594Z,1.83
2022-11-18T14:07:30.905Z,1.80
2022-11-18T14:10:09.111Z,1.73
2022-11-18T14:15:13.957Z,2.15
2022-11-18T14:17:56.757Z,1.92
2022-11-18T14:20:24.952Z,2.20
2022-11-18T14:23:08.707Z,2.00
2022-11-18T14:25:37.100Z,1.75
2022-11-18T14:28:26.804Z,2.08
2022-11-18T14:30:58.920Z,2.15
2022-11-18T14:33:33.764Z,1.80
2022-11-18T14:36:10.547Z,2.10
2022-11-18T14:39:24.856Z,2.22
2022-11-18T14:41:49.823Z,1.80
2022-11-18T14:44:24.815Z,1.88
2022-11-18T14:46:53.498Z,2.03
2022-11-18T14:49:22.437Z,1.60
2022-11-18T14:51:56.553Z,1.65
2022-11-18T14:54:26.979Z,1.65
2022-11-18T14:57:02.712Z,1.55
2022-11-18T14:59:30.091Z,1.35
2022-11-18T15:01:58.507Z,1.85
2022-11-18T15:04:32.656Z,1.60
2022-11-18T15:06:59.968Z,1.65
2022-11-18T15:09:33.581Z,1.35
2022-11-18T15:12:00.834Z,1.50
2022-11-18T15:14:27.932Z,1.77
2022-11-18T15:17:01.768Z,1.45
2022-11-18T15:19:32.311Z,1.55
2022-11-18T15:21:59.593Z,2.03
2022-11-18T15:24:33.887Z,1.63
2022-11-18T15:27:11.518Z,2.30
2022-11-18T15:29:38.716Z,1.83
2022-11-18T15:32:13.670Z,1.60
2022-11-18T15:34:40.863Z,1.80
2022-11-18T15:37:08.061Z,1.73
2022-11-18T15:39:41.694Z,2.00
2022-11-18T15:42:08.921Z,1.52
2022-11-18T15:44:36.133Z,2.05
2022-11-18T15:47:10.691Z,1.60
2022-11-18T15:49:42.968Z,1.85
2022-11-18T15:52:17.680Z,1.58
2022-11-18T15:54:44.852Z,1.50
2022-11-18T15:57:12.159Z,1.83
2022-11-18T15:59:45.581Z,1.83
2022-11-18T16:02:12.797Z,2.13
2022-11-18T16:04:46.625Z,1.67
2022-11-18T16:07:14.008Z,1.48
2022-11-18T16:10:06.833Z,1.80
2022-11-18T16:12:49.206Z,1.23
2022-11-18T16:15:41.621Z,1.98
2022-11-18T16:18:08.934Z,1.65
2022-11-18T16:20:36.298Z,2.13
2022-11-18T16:23:10.691Z,1.67
2022-11-18T16:25:43.363Z,1.65
2022-11-18T16:28:17.840Z,1.70
2022-11-18T16:31:10.229Z,1.77
2022-11-18T16:33:43.635Z,1.30
2022-11-18T16:36:10.858Z,1.60
2022-11-18T16:38:37.967Z,1.50
2022-11-18T16:41:37.586Z,1.70
2022-11-18T16:44:06.021Z,2.10
2022-11-18T16:46:40.724Z,1.95
2022-11-18T16:49:11.284Z,2.15
2022-11-18T16:51:40.128Z,1.70
2022-11-18T16:54:14.593Z,2.10
2022-11-18T16:56:42.095Z,1.90
2022-11-18T16:59:20.100Z,1.67
2022-11-18T17:01:47.553Z,1.80
2022-11-18T17:04:15.363Z,1.60
2022-11-18T17:06:49.816Z,2.00
2022-11-18T17:09:18.769Z,1.77
2022-11-18T17:11:46.396Z,1.48
2022-11-18T17:14:20.955Z,1.85
2022-11-18T17:16:48.125Z,1.67
2022-11-18T17:19:16.784Z,1.90
2022-11-18T17:21:50.683Z,1.80
2022-11-18T17:24:27.542Z,1.48
2022-11-18T17:27:01.725Z,1.42
2022-11-18T17:29:29.090Z,1.95
2022-11-18T17:31:56.172Z,1.63
2022-11-18T17:34:30.023Z,1.58
2022-11-18T17:37:01.590Z,1.60
2022-11-18T17:39:44.725Z,1.95
2022-11-18T17:42:22.482Z,1.95
2022-11-18T17:44:56.829Z,1.17
2022-11-18T17:47:24.120Z,1.48
2022-11-18T17:49:51.441Z,1.27
2022-11-18T17:52:25.630Z,1.35
2022-11-18T17:54:52.827Z,1.50
2022-11-18T17:57:26.861Z,1.20
2022-11-18T17:59:54.110Z,1.40
2022-11-18T18:02:21.515Z,1.50
2022-11-18T18:04:56.090Z,1.35
2022-11-18T18:07:23.316Z,1.40
2022-11-18T18:09:56.817Z,1.42
2022-11-18T18:12:42.713Z,1.38
2022-11-18T18:15:31.779Z,1.50
2022-11-18T18:18:06.329Z,1.45
2022-11-18T18:20:40.762Z,1.58
2022-11-18T18:23:07.897Z,1.52
2022-11-18T18:25:35.067Z,1.27
2022-11-18T18:28:08.719Z,1.50
2022-11-18T18:30:35.860Z,1.60
2022-11-18T18:33:09.885Z,1.50
2022-11-18T18:35:41.334Z,1.13
2022-11-18T18:38:09.209Z,1.65
2022-11-18T18:40:42.606Z,1.23
2022-11-18T18:43:16.541Z,1.40
2022-11-18T18:46:25.647Z,1.40
2022-11-18T18:48:52.912Z,1.43
2022-11-18T18:51:20.050Z,1.23
2022-11-18T18:53:53.634Z,1.50
2022-11-18T18:56:21.007Z,1.60
2022-11-18T18:58:54.766Z,1.20
2022-11-18T19:01:22.122Z,1.80
2022-11-18T19:03:49.557Z,1.40
2022-11-18T19:09:17.734Z,1.63
2022-11-18T19:12:03.602Z,1.50
2022-11-18T19:14:37.564Z,1.23
2022-11-18T19:20:17.553Z,1.50
2022-11-18T19:22:45.018Z,1.40
2022-11-18T19:25:18.696Z,1.42
2022-11-18T19:27:53.160Z,1.40
2022-11-18T19:30:26.578Z,1.30
2022-11-18T19:32:55.878Z,1.23
2022-11-18T19:35:23.594Z,1.30
2022-11-18T19:37:57.701Z,1.33
2022-11-18T19:40:31.633Z,1.40
2022-11-18T19:43:05.772Z,0.98
2022-11-18T19:45:33.037Z,1.40
2022-11-18T19:48:01.782Z,1.30
2022-11-18T19:50:35.733Z,1.17
2022-11-18T19:53:22.855Z,1.42
2022-11-18T19:56:04.174Z,1.15
2022-11-18T19:58:35.222Z,1.10
2022-11-18T20:01:24.844Z,1.35
2022-11-18T20:03:57.422Z,1.10
2022-11-18T20:06:31.909Z,1.25
2022-11-18T20:08:59.085Z,1.85
2022-11-18T20:11:26.197Z,1.02
2022-11-18T20:13:59.642Z,1.20
2022-11-18T20:16:26.930Z,1.80
2022-11-18T20:19:10.957Z,1.33
2022-11-18T20:21:39.202Z,1.10
2022-11-18T20:24:07.205Z,1.10
2022-11-18T20:26:41.748Z,1.38
2022-11-18T20:29:15.855Z,1.45
2022-11-18T20:31:43.257Z,1.10
2022-11-18T20:34:12.485Z,1.20
2022-11-18T20:36:46.624Z,1.40
2022-11-18T20:39:25.076Z,1.15
2022-11-18T20:42:23.703Z,1.20
2022-11-18T20:44:51.081Z,1.20
2022-11-18T20:47:24.745Z,1.42
2022-11-18T20:49:51.958Z,1.45
2022-11-18T20:52:32.797Z,1.23
2022-11-18T20:55:05.253Z,1.40
2022-11-18T20:57:39.719Z,1.50
2022-11-18T21:00:07.185Z,1.25
2022-11-18T21:02:34.298Z,1.40
2022-11-18T21:05:07.863Z,1.60
2022-11-18T21:07:35.077Z,1.30
2022-11-18T21:10:02.501Z,1.48
2022-11-18T21:12:36.624Z,1.33
2022-11-18T21:15:10.563Z,1.40
2022-11-18T21:17:37.724Z,1.40
2022-11-18T21:20:31.572Z,1.35
2022-11-18T21:22:58.755Z,1.30
2022-11-18T21:25:32.664Z,1.40
2022-11-18T21:27:59.881Z,1.35
2022-11-18T21:30:27.142Z,1.67
2022-11-18T21:33:00.696Z,1.20
2022-11-18T21:35:27.836Z,1.40
2022-11-18T21:38:01.699Z,1.17
2022-11-18T21:40:48.567Z,1.10
2022-11-18T21:43:50.224Z,1.00
2022-11-18T21:46:21.596Z,1.15
2022-11-18T21:48:49.301Z,1.27
2022-11-18T21:51:23.618Z,1.60
2022-11-18T21:53:50.846Z,1.10
2022-11-18T21:56:22.522Z,1.17
2022-11-18T21:58:56.700Z,1.30
2022-11-18T22:01:27.791Z,1.33
2022-11-18T22:04:02.863Z,1.38
2022-11-18T22:06:32.553Z,0.90
2022-11-18T22:09:00.359Z,1.20
2022-11-18T22:11:34.769Z,0.98
2022-11-18T22:14:02.024Z,1.40
2022-11-18T22:16:29.173Z,1.38
2022-11-18T22:19:08.008Z,1.50
2022-11-18T22:21:35.567Z,1.50
2022-11-18T22:24:09.778Z,1.05
2022-11-18T22:26:36.972Z,1.00
2022-11-18T22:29:04.224Z,1.25
2022-11-18T22:31:37.747Z,1.48
2022-11-18T22:34:04.991Z,1.55
2022-11-18T22:36:32.681Z,1.40
2022-11-18T22:39:06.725Z,1.30
2022-11-18T22:41:59.498Z,1.48
2022-11-18T22:44:33.648Z,1.95
2022-11-18T22:47:00.817Z,1.50
2022-11-18T22:49:34.786Z,1.52
2022-11-18T22:52:01.991Z,1.50
2022-11-18T22:54:44.506Z,1.67
2022-11-18T22:57:18.964Z,1.58
2022-11-18T22:59:46.075Z,1.27
2022-11-18T23:02:13.394Z,1.42
2022-11-18T23:04:46.669Z,1.48
2022-11-18T23:07:13.861Z,1.60
2022-11-18T23:09:47.791Z,1.40
2022-11-18T23:12:33.772Z,2.05
2022-11-18T23:15:07.761Z,1.77
2022-11-18T23:17:41.731Z,1.85
2022-11-18T23:20:09.382Z,1.50
2022-11-18T23:22:36.524Z,1.60
2022-11-18T23:25:10.667Z,1.58
2022-11-18T23:27:37.912Z,1.60
2022-11-18T23:30:11.820Z,1.55
2022-11-18T23:32:38.978Z,1.40
2022-11-18T23:35:06.284Z,1.58
2022-11-18T23:37:39.717Z,1.65
2022-11-18T23:40:13.900Z,1.80
2022-11-18T23:42:53.803Z,1.65
2022-11-18T23:45:20.960Z,1.50
2022-11-18T23:47:48.043Z,1.83
2022-11-18T23:50:21.667Z,1.48
2022-11-18T23:52:48.820Z,1.50
2022-11-18T23:55:22.767Z,1.33
2022-11-18T23:57:49.907Z,1.55
